sensor_id;sensor_type;location;lat;lon;timestamp;P1;durP1;ratioP1;P2;durP2;ratioP2
50695;SDS011;36665;51.786;21.594;2023-11-18T00:01:58;11.30;;;7.30;;
50695;SDS011;36665;51.786;21.594;2023-11-18T00:10:20;10.20;;;5.70;;
50695;SDS011;36665;51.786;21.594;2023-11-18T00:18:48;12.70;;;7.80;;
50695;SDS011;36665;51.786;21.594;2023-11-18T00:27:11;8.90;;;4.90;;
50695;SDS011;36665;51.786;21.594;2023-11-18T00:35:36;10.10;;;6.80;;
50695;SDS011;36665;51.786;21.594;2023-11-18T00:44:02;9.90;;;6.40;;
50695;SDS011;36665;51.786;21.594;2023-11-18T00:52:25;13.30;;;6.00;;
50695;SDS011;36665;51.786;21.594;2023-11-18T01:00:48;12.00;;;7.00;;
50695;SDS011;36665;51.786;21.594;2023-11-18T01:09:12;13.30;;;7.40;;
50695;SDS011;36665;51.786;21.594;2023-11-18T01:17:37;15.50;;;7.40;;
50695;SDS011;36665;51.786;21.594;2023-11-18T01:26:03;12.70;;;7.20;;
50695;SDS011;36665;51.786;21.594;2023-11-18T01:34:28;11.50;;;7.60;;
50695;SDS011;36665;51.786;21.594;2023-11-18T01:42:53;12.10;;;6.80;;
50695;SDS011;36665;51.786;21.594;2023-11-18T01:51:15;12.90;;;8.00;;
50695;SDS011;36665;51.786;21.594;2023-11-18T01:59:42;11.70;;;7.40;;
50695;SDS011;36665;51.786;21.594;2023-11-18T02:08:05;12.50;;;7.10;;
50695;SDS011;36665;51.786;21.594;2023-11-18T02:16:32;12.70;;;7.10;;
50695;SDS011;36665;51.786;21.594;2023-11-18T02:24:56;10.20;;;7.30;;
50695;SDS011;36665;51.786;21.594;2023-11-18T02:41:55;7.20;;;4.90;;
50695;SDS011;36665;51.786;21.594;2023-11-18T02:50:19;10.80;;;5.80;;
50695;SDS011;36665;51.786;21.594;2023-11-18T02:58:43;8.90;;;5.60;;
50695;SDS011;36665;51.786;21.594;2023-11-18T03:07:07;10.60;;;6.60;;
50695;SDS011;36665;51.786;21.594;2023-11-18T03:15:30;10.70;;;6.30;;
50695;SDS011;36665;51.786;21.594;2023-11-18T03:23:53;8.50;;;6.00;;
50695;SDS011;36665;51.786;21.594;2023-11-18T03:32:17;13.50;;;6.70;;
50695;SDS011;36665;51.786;21.594;2023-11-18T03:40:41;21.70;;;7.70;;
50695;SDS011;36665;51.786;21.594;2023-11-18T03:49:08;15.70;;;7.20;;
50695;SDS011;36665;51.786;21.594;2023-11-18T03:57:31;21.10;;;7.90;;
50695;SDS011;36665;51.786;21.594;2023-11-18T04:05:55;16.90;;;9.40;;
50695;SDS011;36665;51.786;21.594;2023-11-18T04:14:18;12.60;;;7.00;;
50695;SDS011;36665;51.786;21.594;2023-11-18T04:22:43;8.50;;;6.00;;
50695;SDS011;36665;51.786;21.594;2023-11-18T04:31:14;9.50;;;7.00;;
50695;SDS011;36665;51.786;21.594;2023-11-18T04:39:40;14.70;;;8.30;;
50695;SDS011;36665;51.786;21.594;2023-11-18T04:48:04;15.70;;;9.50;;
50695;SDS011;36665;51.786;21.594;2023-11-18T04:56:31;10.10;;;7.00;;
50695;SDS011;36665;51.786;21.594;2023-11-18T05:05:27;12.30;;;7.70;;
50695;SDS011;36665;51.786;21.594;2023-11-18T05:14:33;11.60;;;7.70;;
50695;SDS011;36665;51.786;21.594;2023-11-18T05:23:04;11.50;;;7.60;;
50695;SDS011;36665;51.786;21.594;2023-11-18T05:32:54;9.80;;;7.80;;
50695;SDS011;36665;51.786;21.594;2023-11-18T05:42:04;12.40;;;7.60;;
50695;SDS011;36665;51.786;21.594;2023-11-18T05:51:22;11.60;;;7.00;;
50695;SDS011;36665;51.786;21.594;2023-11-18T05:59:47;11.60;;;7.10;;
50695;SDS011;36665;51.786;21.594;2023-11-18T06:08:23;13.10;;;8.90;;
50695;SDS011;36665;51.786;21.594;2023-11-18T06:17:14;20.30;;;11.80;;
50695;SDS011;36665;51.786;21.594;2023-11-18T06:25:37;18.00;;;10.30;;
50695;SDS011;36665;51.786;21.594;2023-11-18T06:33:59;16.00;;;10.60;;
50695;SDS011;36665;51.786;21.594;2023-11-18T06:42:22;11.50;;;8.60;;
50695;SDS011;36665;51.786;21.594;2023-11-18T06:50:46;18.10;;;9.30;;
50695;SDS011;36665;51.786;21.594;2023-11-18T06:59:19;36.40;;;19.60;;
50695;SDS011;36665;51.786;21.594;2023-11-18T07:07:47;18.10;;;11.00;;
50695;SDS011;36665;51.786;21.594;2023-11-18T07:18:24;18.70;;;10.10;;
50695;SDS011;36665;51.786;21.594;2023-11-18T07:39:19;20.10;;;11.50;;
50695;SDS011;36665;51.786;21.594;2023-11-18T07:48:28;13.00;;;8.60;;
50695;SDS011;36665;51.786;21.594;2023-11-18T07:58:01;13.80;;;9.40;;
50695;SDS011;36665;51.786;21.594;2023-11-18T08:06:46;22.40;;;12.80;;
50695;SDS011;36665;51.786;21.594;2023-11-18T08:15:49;17.80;;;11.80;;
50695;SDS011;36665;51.786;21.594;2023-11-18T08:24:14;22.80;;;14.40;;
50695;SDS011;36665;51.786;21.594;2023-11-18T08:32:43;33.00;;;17.80;;
50695;SDS011;36665;51.786;21.594;2023-11-18T08:41:15;15.10;;;9.50;;
50695;SDS011;36665;51.786;21.594;2023-11-18T08:49:45;22.50;;;14.30;;
50695;SDS011;36665;51.786;21.594;2023-11-18T08:58:12;23.70;;;14.10;;
50695;SDS011;36665;51.786;21.594;2023-11-18T09:06:53;16.30;;;9.00;;
50695;SDS011;36665;51.786;21.594;2023-11-18T09:15:26;19.20;;;12.20;;
50695;SDS011;36665;51.786;21.594;2023-11-18T09:24:00;11.50;;;8.10;;
50695;SDS011;36665;51.786;21.594;2023-11-18T09:32:29;16.70;;;9.50;;
50695;SDS011;36665;51.786;21.594;2023-11-18T09:40:58;28.00;;;15.30;;
50695;SDS011;36665;51.786;21.594;2023-11-18T09:49:40;15.70;;;7.90;;
50695;SDS011;36665;51.786;21.594;2023-11-18T09:58:15;33.30;;;16.30;;
50695;SDS011;36665;51.786;21.594;2023-11-18T10:06:49;27.70;;;15.20;;
50695;SDS011;36665;51.786;21.594;2023-11-18T10:15:20;21.70;;;11.70;;
50695;SDS011;36665;51.786;21.594;2023-11-18T10:24:19;17.60;;;10.80;;
50695;SDS011;36665;51.786;21.594;2023-11-18T10:33:31;21.00;;;12.00;;
50695;SDS011;36665;51.786;21.594;2023-11-18T10:42:08;24.70;;;13.60;;
50695;SDS011;36665;51.786;21.594;2023-11-18T10:50:38;23.60;;;13.90;;
50695;SDS011;36665;51.786;21.594;2023-11-18T10:59:06;25.50;;;12.40;;
50695;SDS011;36665;51.786;21.594;2023-11-18T11:07:43;19.60;;;12.20;;
50695;SDS011;36665;51.786;21.594;2023-11-18T11:16:18;26.10;;;13.70;;
50695;SDS011;36665;51.786;21.594;2023-11-18T11:24:54;24.40;;;13.40;;
50695;SDS011;36665;51.786;21.594;2023-11-18T11:42:46;29.30;;;14.20;;
50695;SDS011;36665;51.786;21.594;2023-11-18T11:51:24;31.00;;;16.30;;
50695;SDS011;36665;51.786;21.594;2023-11-18T12:00:02;31.00;;;17.50;;
50695;SDS011;36665;51.786;21.594;2023-11-18T12:08:44;109.90;;;39.90;;
50695;SDS011;36665;51.786;21.594;2023-11-18T12:17:16;40.50;;;22.50;;
50695;SDS011;36665;51.786;21.594;2023-11-18T12:25:49;36.70;;;20.40;;
50695;SDS011;36665;51.786;21.594;2023-11-18T12:34:22;41.10;;;20.60;;
50695;SDS011;36665;51.786;21.594;2023-11-18T12:43:01;25.70;;;14.60;;
50695;SDS011;36665;51.786;21.594;2023-11-18T12:51:43;71.20;;;30.20;;
50695;SDS011;36665;51.786;21.594;2023-11-18T13:00:16;35.40;;;21.00;;
50695;SDS011;36665;51.786;21.594;2023-11-18T13:08:53;32.90;;;18.60;;
50695;SDS011;36665;51.786;21.594;2023-11-18T13:17:37;67.10;;;34.30;;
50695;SDS011;36665;51.786;21.594;2023-11-18T13:26:23;47.10;;;23.10;;
50695;SDS011;36665;51.786;21.594;2023-11-18T13:34:57;85.30;;;38.90;;
50695;SDS011;36665;51.786;21.594;2023-11-18T13:43:41;66.30;;;31.20;;
50695;SDS011;36665;51.786;21.594;2023-11-18T13:52:15;49.90;;;26.10;;
50695;SDS011;36665;51.786;21.594;2023-11-18T14:00:46;42.80;;;23.10;;
50695;SDS011;36665;51.786;21.594;2023-11-18T14:09:17;77.20;;;35.10;;
50695;SDS011;36665;51.786;21.594;2023-11-18T14:18:07;69.10;;;32.00;;
50695;SDS011;36665;51.786;21.594;2023-11-18T14:37:06;90.70;;;36.50;;
50695;SDS011;36665;51.786;21.594;2023-11-18T14:45:50;70.90;;;33.00;;
50695;SDS011;36665;51.786;21.594;2023-11-18T14:54:22;77.40;;;37.10;;
50695;SDS011;36665;51.786;21.594;2023-11-18T15:02:46;55.50;;;27.60;;
50695;SDS011;36665;51.786;21.594;2023-11-18T15:11:12;79.70;;;36.50;;
50695;SDS011;36665;51.786;21.594;2023-11-18T15:19:44;73.00;;;34.60;;
50695;SDS011;36665;51.786;21.594;2023-11-18T15:28:09;70.80;;;34.90;;
50695;SDS011;36665;51.786;21.594;2023-11-18T15:36:41;47.60;;;25.50;;
50695;SDS011;36665;51.786;21.594;2023-11-18T15:45:10;59.80;;;30.90;;
50695;SDS011;36665;51.786;21.594;2023-11-18T15:53:35;56.30;;;28.80;;
50695;SDS011;36665;51.786;21.594;2023-11-18T16:02:04;56.10;;;27.20;;
50695;SDS011;36665;51.786;21.594;2023-11-18T16:10:31;52.80;;;28.40;;
50695;SDS011;36665;51.786;21.594;2023-11-18T16:18:55;50.20;;;25.60;;
50695;SDS011;36665;51.786;21.594;2023-11-18T16:27:25;48.50;;;23.40;;
50695;SDS011;36665;51.786;21.594;2023-11-18T16:35:54;46.10;;;23.90;;
50695;SDS011;36665;51.786;21.594;2023-11-18T16:44:19;63.10;;;29.30;;
50695;SDS011;36665;51.786;21.594;2023-11-18T16:52:47;67.30;;;30.70;;
50695;SDS011;36665;51.786;21.594;2023-11-18T17:01:19;65.80;;;31.80;;
50695;SDS011;36665;51.786;21.594;2023-11-18T17:09:49;67.20;;;32.40;;
50695;SDS011;36665;51.786;21.594;2023-11-18T17:18:17;73.30;;;32.80;;
50695;SDS011;36665;51.786;21.594;2023-11-18T17:26:43;88.80;;;41.90;;
50695;SDS011;36665;51.786;21.594;2023-11-18T17:35:10;86.90;;;40.70;;
50695;SDS011;36665;51.786;21.594;2023-11-18T17:43:38;42.80;;;23.80;;
50695;SDS011;36665;51.786;21.594;2023-11-18T17:52:05;59.20;;;30.20;;
50695;SDS011;36665;51.786;21.594;2023-11-18T18:00:31;58.50;;;28.80;;
50695;SDS011;36665;51.786;21.594;2023-11-18T18:08:59;48.50;;;22.50;;
50695;SDS011;36665;51.786;21.594;2023-11-18T18:17:23;50.20;;;21.30;;
50695;SDS011;36665;51.786;21.594;2023-11-18T18:25:48;66.40;;;27.60;;
50695;SDS011;36665;51.786;21.594;2023-11-18T18:34:11;76.40;;;37.00;;
50695;SDS011;36665;51.786;21.594;2023-11-18T18:42:35;52.50;;;27.90;;
50695;SDS011;36665;51.786;21.594;2023-11-18T18:51:03;41.80;;;19.90;;
50695;SDS011;36665;51.786;21.594;2023-11-18T18:59:29;42.00;;;19.50;;
50695;SDS011;36665;51.786;21.594;2023-11-18T19:07:56;25.40;;;12.70;;
50695;SDS011;36665;51.786;21.594;2023-11-18T19:16:26;30.90;;;16.70;;
50695;SDS011;36665;51.786;21.594;2023-11-18T19:24:53;33.20;;;17.60;;
50695;SDS011;36665;51.786;21.594;2023-11-18T19:33:21;41.40;;;19.30;;
50695;SDS011;36665;51.786;21.594;2023-11-18T19:41:49;51.10;;;23.60;;
50695;SDS011;36665;51.786;21.594;2023-11-18T19:50:14;77.80;;;35.80;;
50695;SDS011;36665;51.786;21.594;2023-11-18T19:58:39;90.00;;;39.10;;
50695;SDS011;36665;51.786;21.594;2023-11-18T20:07:04;64.70;;;33.20;;
50695;SDS011;36665;51.786;21.594;2023-11-18T20:15:34;106.70;;;46.40;;
50695;SDS011;36665;51.786;21.594;2023-11-18T20:23:59;76.10;;;33.60;;
50695;SDS011;36665;51.786;21.594;2023-11-18T20:32:33;85.80;;;34.90;;
50695;SDS011;36665;51.786;21.594;2023-11-18T20:41:00;119.20;;;47.30;;
50695;SDS011;36665;51.786;21.594;2023-11-18T20:49:25;80.50;;;36.40;;
50695;SDS011;36665;51.786;21.594;2023-11-18T20:57:49;89.50;;;39.10;;
50695;SDS011;36665;51.786;21.594;2023-11-18T21:06:15;67.00;;;30.90;;
50695;SDS011;36665;51.786;21.594;2023-11-18T21:14:47;64.30;;;27.40;;
50695;SDS011;36665;51.786;21.594;2023-11-18T21:23:34;64.40;;;30.60;;
50695;SDS011;36665;51.786;21.594;2023-11-18T21:31:58;76.60;;;34.20;;
50695;SDS011;36665;51.786;21.594;2023-11-18T21:40:22;88.20;;;35.90;;
50695;SDS011;36665;51.786;21.594;2023-11-18T21:48:47;89.00;;;36.90;;
50695;SDS011;36665;51.786;21.594;2023-11-18T21:57:12;69.20;;;33.00;;
50695;SDS011;36665;51.786;21.594;2023-11-18T22:05:38;60.00;;;28.20;;
50695;SDS011;36665;51.786;21.594;2023-11-18T22:14:02;42.70;;;21.70;;
50695;SDS011;36665;51.786;21.594;2023-11-18T22:22:27;54.50;;;24.70;;
50695;SDS011;36665;51.786;21.594;2023-11-18T22:30:55;40.50;;;20.00;;
50695;SDS011;36665;51.786;21.594;2023-11-18T22:39:22;44.40;;;22.30;;
50695;SDS011;36665;51.786;21.594;2023-11-18T22:47:46;46.10;;;23.60;;
50695;SDS011;36665;51.786;21.594;2023-11-18T22:56:14;68.60;;;30.70;;
50695;SDS011;36665;51.786;21.594;2023-11-18T23:04:43;87.30;;;35.60;;
50695;SDS011;36665;51.786;21.594;2023-11-18T23:13:09;50.90;;;23.80;;
50695;SDS011;36665;51.786;21.594;2023-11-18T23:21:35;52.50;;;23.70;;
50695;SDS011;36665;51.786;21.594;2023-11-18T23:30:04;45.70;;;23.40;;
50695;SDS011;36665;51.786;21.594;2023-11-18T23:38:32;59.30;;;26.50;;
50695;SDS011;36665;51.786;21.594;2023-11-18T23:46:57;56.80;;;26.90;;
50695;SDS011;36665;51.786;21.594;2023-11-18T23:55:25;53.30;;;25.60;;
